sensor_id;sensor_type;location;lat;lon;timestamp;P1;durP1;ratioP1;P2;durP2;ratioP2
66139;SDS011;52945;51.908;8.364;2023-07-08T00:00:10;2.40;;;1.77;;
66139;SDS011;52945;51.908;8.364;2023-07-08T00:03:12;4.30;;;2.13;;
66139;SDS011;52945;51.908;8.364;2023-07-08T00:06:26;3.67;;;1.85;;
66139;SDS011;52945;51.908;8.364;2023-07-08T00:09:27;4.03;;;1.88;;
66139;SDS011;52945;51.908;8.364;2023-07-08T00:12:28;4.70;;;2.30;;
66139;SDS011;52945;51.908;8.364;2023-07-08T00:15:30;3.50;;;2.00;;
66139;SDS011;52945;51.908;8.364;2023-07-08T00:18:34;3.00;;;1.90;;
66139;SDS011;52945;51.908;8.364;2023-07-08T00:21:35;3.75;;;2.42;;
66139;SDS011;52945;51.908;8.364;2023-07-08T00:24:36;3.90;;;2.25;;
66139;SDS011;52945;51.908;8.364;2023-07-08T00:27:36;3.20;;;1.90;;
66139;SDS011;52945;51.908;8.364;2023-07-08T00:30:37;2.55;;;2.25;;
66139;SDS011;52945;51.908;8.364;2023-07-08T00:33:37;3.50;;;2.35;;
66139;SDS011;52945;51.908;8.364;2023-07-08T00:36:38;5.38;;;2.13;;
66139;SDS011;52945;51.908;8.364;2023-07-08T00:39:39;3.42;;;2.15;;
66139;SDS011;52945;51.908;8.364;2023-07-08T00:42:40;2.78;;;2.10;;
66139;SDS011;52945;51.908;8.364;2023-07-08T00:45:45;3.67;;;2.13;;
66139;SDS011;52945;51.908;8.364;2023-07-08T00:48:49;2.88;;;1.90;;
66139;SDS011;52945;51.908;8.364;2023-07-08T00:51:52;3.45;;;2.22;;
66139;SDS011;52945;51.908;8.364;2023-07-08T00:54:53;3.05;;;2.30;;
66139;SDS011;52945;51.908;8.364;2023-07-08T00:57:59;3.75;;;2.25;;
66139;SDS011;52945;51.908;8.364;2023-07-08T01:00:59;3.35;;;2.40;;
66139;SDS011;52945;51.908;8.364;2023-07-08T01:04:04;3.95;;;2.22;;
66139;SDS011;52945;51.908;8.364;2023-07-08T01:07:08;3.75;;;2.30;;
66139;SDS011;52945;51.908;8.364;2023-07-08T01:10:10;3.53;;;2.30;;
66139;SDS011;52945;51.908;8.364;2023-07-08T01:13:16;4.30;;;2.15;;
66139;SDS011;52945;51.908;8.364;2023-07-08T01:16:17;3.10;;;2.10;;
66139;SDS011;52945;51.908;8.364;2023-07-08T01:19:19;2.83;;;2.08;;
66139;SDS011;52945;51.908;8.364;2023-07-08T01:22:33;4.40;;;2.45;;
66139;SDS011;52945;51.908;8.364;2023-07-08T01:25:35;2.90;;;2.28;;
66139;SDS011;52945;51.908;8.364;2023-07-08T01:28:36;4.18;;;2.17;;
66139;SDS011;52945;51.908;8.364;2023-07-08T01:31:37;3.60;;;2.20;;
66139;SDS011;52945;51.908;8.364;2023-07-08T01:34:38;3.65;;;2.53;;
66139;SDS011;52945;51.908;8.364;2023-07-08T01:37:39;3.80;;;2.35;;
66139;SDS011;52945;51.908;8.364;2023-07-08T01:40:50;3.97;;;2.30;;
66139;SDS011;52945;51.908;8.364;2023-07-08T01:43:52;5.22;;;2.83;;
66139;SDS011;52945;51.908;8.364;2023-07-08T01:46:53;4.47;;;2.60;;
66139;SDS011;52945;51.908;8.364;2023-07-08T01:49:58;3.22;;;2.42;;
66139;SDS011;52945;51.908;8.364;2023-07-08T01:52:59;2.90;;;1.98;;
66139;SDS011;52945;51.908;8.364;2023-07-08T01:56:03;3.50;;;2.22;;
66139;SDS011;52945;51.908;8.364;2023-07-08T01:59:04;3.15;;;1.90;;
66139;SDS011;52945;51.908;8.364;2023-07-08T02:02:05;3.00;;;1.90;;
66139;SDS011;52945;51.908;8.364;2023-07-08T02:05:05;2.00;;;1.77;;
66139;SDS011;52945;51.908;8.364;2023-07-08T02:08:06;2.97;;;1.60;;
66139;SDS011;52945;51.908;8.364;2023-07-08T02:11:07;3.58;;;2.00;;
66139;SDS011;52945;51.908;8.364;2023-07-08T02:14:07;2.70;;;1.90;;
66139;SDS011;52945;51.908;8.364;2023-07-08T02:17:08;3.58;;;1.83;;
66139;SDS011;52945;51.908;8.364;2023-07-08T02:20:09;2.58;;;1.85;;
66139;SDS011;52945;51.908;8.364;2023-07-08T02:23:09;2.22;;;1.80;;
66139;SDS011;52945;51.908;8.364;2023-07-08T02:26:10;3.47;;;1.90;;
66139;SDS011;52945;51.908;8.364;2023-07-08T02:29:11;4.57;;;1.98;;
66139;SDS011;52945;51.908;8.364;2023-07-08T02:32:11;3.47;;;1.80;;
66139;SDS011;52945;51.908;8.364;2023-07-08T02:35:12;3.92;;;1.98;;
66139;SDS011;52945;51.908;8.364;2023-07-08T02:38:13;4.03;;;2.38;;
66139;SDS011;52945;51.908;8.364;2023-07-08T02:41:13;4.50;;;1.95;;
66139;SDS011;52945;51.908;8.364;2023-07-08T02:44:14;2.78;;;2.28;;
66139;SDS011;52945;51.908;8.364;2023-07-08T02:47:15;3.33;;;2.20;;
66139;SDS011;52945;51.908;8.364;2023-07-08T02:50:15;3.30;;;2.10;;
66139;SDS011;52945;51.908;8.364;2023-07-08T02:53:17;3.60;;;2.35;;
66139;SDS011;52945;51.908;8.364;2023-07-08T02:56:17;3.55;;;2.05;;
66139;SDS011;52945;51.908;8.364;2023-07-08T02:59:18;4.32;;;2.60;;
66139;SDS011;52945;51.908;8.364;2023-07-08T03:02:18;6.38;;;2.80;;
66139;SDS011;52945;51.908;8.364;2023-07-08T03:08:20;5.93;;;2.45;;
66139;SDS011;52945;51.908;8.364;2023-07-08T03:11:20;3.00;;;2.22;;
66139;SDS011;52945;51.908;8.364;2023-07-08T03:14:21;5.57;;;2.85;;
66139;SDS011;52945;51.908;8.364;2023-07-08T03:17:21;5.03;;;2.80;;
66139;SDS011;52945;51.908;8.364;2023-07-08T03:20:22;7.68;;;3.20;;
66139;SDS011;52945;51.908;8.364;2023-07-08T03:23:23;6.55;;;3.63;;
66139;SDS011;52945;51.908;8.364;2023-07-08T03:26:25;5.93;;;3.95;;
66139;SDS011;52945;51.908;8.364;2023-07-08T03:29:26;7.00;;;3.72;;
66139;SDS011;52945;51.908;8.364;2023-07-08T03:32:27;6.22;;;3.50;;
66139;SDS011;52945;51.908;8.364;2023-07-08T03:35:27;6.45;;;3.20;;
66139;SDS011;52945;51.908;8.364;2023-07-08T03:38:28;5.78;;;3.30;;
66139;SDS011;52945;51.908;8.364;2023-07-08T03:41:28;4.82;;;2.88;;
66139;SDS011;52945;51.908;8.364;2023-07-08T03:47:30;3.80;;;2.50;;
66139;SDS011;52945;51.908;8.364;2023-07-08T03:53:31;3.72;;;2.22;;
66139;SDS011;52945;51.908;8.364;2023-07-08T03:59:32;5.25;;;2.28;;
66139;SDS011;52945;51.908;8.364;2023-07-08T04:02:33;2.28;;;1.90;;
66139;SDS011;52945;51.908;8.364;2023-07-08T04:05:33;5.68;;;2.38;;
66139;SDS011;52945;51.908;8.364;2023-07-08T04:08:34;3.75;;;2.10;;
66139;SDS011;52945;51.908;8.364;2023-07-08T04:11:34;4.80;;;2.38;;
66139;SDS011;52945;51.908;8.364;2023-07-08T04:14:36;4.07;;;2.25;;
66139;SDS011;52945;51.908;8.364;2023-07-08T04:17:41;5.82;;;2.30;;
66139;SDS011;52945;51.908;8.364;2023-07-08T04:20:45;4.40;;;2.17;;
66139;SDS011;52945;51.908;8.364;2023-07-08T04:23:52;6.15;;;2.55;;
66139;SDS011;52945;51.908;8.364;2023-07-08T04:26:52;3.05;;;2.20;;
66139;SDS011;52945;51.908;8.364;2023-07-08T04:29:53;2.53;;;2.22;;
66139;SDS011;52945;51.908;8.364;2023-07-08T04:32:54;2.60;;;1.80;;
66139;SDS011;52945;51.908;8.364;2023-07-08T04:35:56;3.35;;;2.17;;
66139;SDS011;52945;51.908;8.364;2023-07-08T04:41:58;3.10;;;1.88;;
66139;SDS011;52945;51.908;8.364;2023-07-08T04:44:58;3.95;;;2.00;;
66139;SDS011;52945;51.908;8.364;2023-07-08T04:47:59;6.00;;;2.03;;
66139;SDS011;52945;51.908;8.364;2023-07-08T04:50:59;4.32;;;2.30;;
66139;SDS011;52945;51.908;8.364;2023-07-08T04:54:00;2.92;;;2.10;;
66139;SDS011;52945;51.908;8.364;2023-07-08T04:57:00;2.72;;;1.90;;
66139;SDS011;52945;51.908;8.364;2023-07-08T05:00:01;2.90;;;2.22;;
66139;SDS011;52945;51.908;8.364;2023-07-08T05:03:02;3.45;;;2.10;;
66139;SDS011;52945;51.908;8.364;2023-07-08T05:06:03;4.35;;;2.40;;
66139;SDS011;52945;51.908;8.364;2023-07-08T05:09:04;4.45;;;1.77;;
66139;SDS011;52945;51.908;8.364;2023-07-08T05:12:05;3.10;;;2.10;;
66139;SDS011;52945;51.908;8.364;2023-07-08T05:15:06;3.53;;;2.05;;
66139;SDS011;52945;51.908;8.364;2023-07-08T05:18:07;3.40;;;2.08;;
66139;SDS011;52945;51.908;8.364;2023-07-08T05:21:08;3.45;;;2.20;;
66139;SDS011;52945;51.908;8.364;2023-07-08T05:24:09;3.50;;;1.95;;
66139;SDS011;52945;51.908;8.364;2023-07-08T05:27:10;3.22;;;2.20;;
66139;SDS011;52945;51.908;8.364;2023-07-08T05:30:16;4.53;;;1.95;;
66139;SDS011;52945;51.908;8.364;2023-07-08T05:33:17;3.38;;;2.03;;
66139;SDS011;52945;51.908;8.364;2023-07-08T05:36:18;4.22;;;2.10;;
66139;SDS011;52945;51.908;8.364;2023-07-08T05:39:19;4.32;;;2.25;;
66139;SDS011;52945;51.908;8.364;2023-07-08T05:42:20;3.30;;;2.50;;
66139;SDS011;52945;51.908;8.364;2023-07-08T05:45:21;3.17;;;2.17;;
66139;SDS011;52945;51.908;8.364;2023-07-08T05:48:21;2.97;;;2.00;;
66139;SDS011;52945;51.908;8.364;2023-07-08T05:51:22;3.60;;;2.10;;
66139;SDS011;52945;51.908;8.364;2023-07-08T05:54:22;2.35;;;1.88;;
66139;SDS011;52945;51.908;8.364;2023-07-08T05:57:23;3.28;;;2.33;;
66139;SDS011;52945;51.908;8.364;2023-07-08T06:00:24;3.13;;;1.77;;
66139;SDS011;52945;51.908;8.364;2023-07-08T06:03:24;3.30;;;2.00;;
66139;SDS011;52945;51.908;8.364;2023-07-08T06:06:25;3.22;;;2.00;;
66139;SDS011;52945;51.908;8.364;2023-07-08T06:09:27;4.28;;;1.83;;
66139;SDS011;52945;51.908;8.364;2023-07-08T06:12:27;5.63;;;2.28;;
66139;SDS011;52945;51.908;8.364;2023-07-08T06:15:28;4.15;;;2.20;;
66139;SDS011;52945;51.908;8.364;2023-07-08T06:18:28;4.82;;;2.05;;
66139;SDS011;52945;51.908;8.364;2023-07-08T06:21:29;4.20;;;1.90;;
66139;SDS011;52945;51.908;8.364;2023-07-08T06:24:29;3.92;;;2.20;;
66139;SDS011;52945;51.908;8.364;2023-07-08T06:27:30;3.95;;;2.08;;
66139;SDS011;52945;51.908;8.364;2023-07-08T06:30:31;3.30;;;2.00;;
66139;SDS011;52945;51.908;8.364;2023-07-08T06:33:31;4.80;;;2.00;;
66139;SDS011;52945;51.908;8.364;2023-07-08T06:36:32;2.53;;;2.05;;
66139;SDS011;52945;51.908;8.364;2023-07-08T06:39:33;3.63;;;2.22;;
66139;SDS011;52945;51.908;8.364;2023-07-08T06:42:33;5.20;;;2.35;;
66139;SDS011;52945;51.908;8.364;2023-07-08T06:45:34;4.88;;;2.15;;
66139;SDS011;52945;51.908;8.364;2023-07-08T06:48:35;3.97;;;2.30;;
66139;SDS011;52945;51.908;8.364;2023-07-08T06:51:36;4.18;;;2.22;;
66139;SDS011;52945;51.908;8.364;2023-07-08T06:54:38;2.90;;;2.03;;
66139;SDS011;52945;51.908;8.364;2023-07-08T06:57:38;2.35;;;1.90;;
66139;SDS011;52945;51.908;8.364;2023-07-08T07:00:43;2.75;;;1.90;;
66139;SDS011;52945;51.908;8.364;2023-07-08T07:03:44;2.75;;;2.10;;
66139;SDS011;52945;51.908;8.364;2023-07-08T07:06:44;3.33;;;2.15;;
66139;SDS011;52945;51.908;8.364;2023-07-08T07:09:45;2.40;;;1.80;;
66139;SDS011;52945;51.908;8.364;2023-07-08T07:12:45;2.80;;;1.88;;
66139;SDS011;52945;51.908;8.364;2023-07-08T07:15:48;3.50;;;2.20;;
66139;SDS011;52945;51.908;8.364;2023-07-08T07:18:49;3.42;;;2.38;;
66139;SDS011;52945;51.908;8.364;2023-07-08T07:21:51;4.63;;;1.80;;
66139;SDS011;52945;51.908;8.364;2023-07-08T07:24:52;3.50;;;1.98;;
66139;SDS011;52945;51.908;8.364;2023-07-08T07:27:52;4.78;;;2.20;;
66139;SDS011;52945;51.908;8.364;2023-07-08T07:30:57;4.22;;;2.30;;
66139;SDS011;52945;51.908;8.364;2023-07-08T07:33:59;4.53;;;2.15;;
66139;SDS011;52945;51.908;8.364;2023-07-08T07:37:00;3.30;;;2.03;;
66139;SDS011;52945;51.908;8.364;2023-07-08T07:40:00;5.13;;;2.35;;
66139;SDS011;52945;51.908;8.364;2023-07-08T07:43:01;3.47;;;2.05;;
66139;SDS011;52945;51.908;8.364;2023-07-08T07:46:02;3.13;;;2.20;;
66139;SDS011;52945;51.908;8.364;2023-07-08T07:49:05;3.72;;;2.20;;
66139;SDS011;52945;51.908;8.364;2023-07-08T07:52:06;3.80;;;2.10;;
66139;SDS011;52945;51.908;8.364;2023-07-08T07:55:07;4.65;;;2.42;;
66139;SDS011;52945;51.908;8.364;2023-07-08T07:58:08;3.67;;;2.20;;
66139;SDS011;52945;51.908;8.364;2023-07-08T08:01:11;3.10;;;2.33;;
66139;SDS011;52945;51.908;8.364;2023-07-08T08:04:13;2.33;;;1.90;;
66139;SDS011;52945;51.908;8.364;2023-07-08T08:07:13;3.80;;;2.40;;
66139;SDS011;52945;51.908;8.364;2023-07-08T08:10:14;5.35;;;2.40;;
66139;SDS011;52945;51.908;8.364;2023-07-08T08:13:15;2.90;;;2.25;;
66139;SDS011;52945;51.908;8.364;2023-07-08T08:16:16;3.63;;;2.28;;
66139;SDS011;52945;51.908;8.364;2023-07-08T08:19:16;4.22;;;2.33;;
66139;SDS011;52945;51.908;8.364;2023-07-08T08:22:17;4.43;;;2.17;;
66139;SDS011;52945;51.908;8.364;2023-07-08T08:25:18;3.35;;;2.13;;
66139;SDS011;52945;51.908;8.364;2023-07-08T08:28:20;3.88;;;2.20;;
66139;SDS011;52945;51.908;8.364;2023-07-08T08:31:21;3.63;;;1.95;;
66139;SDS011;52945;51.908;8.364;2023-07-08T08:34:21;3.83;;;2.35;;
66139;SDS011;52945;51.908;8.364;2023-07-08T08:37:22;4.18;;;2.20;;
66139;SDS011;52945;51.908;8.364;2023-07-08T08:40:23;3.10;;;2.20;;
66139;SDS011;52945;51.908;8.364;2023-07-08T08:43:31;4.65;;;2.60;;
66139;SDS011;52945;51.908;8.364;2023-07-08T08:50:04;4.18;;;2.25;;
66139;SDS011;52945;51.908;8.364;2023-07-08T08:53:20;3.58;;;2.30;;
66139;SDS011;52945;51.908;8.364;2023-07-08T08:56:24;4.55;;;2.53;;
66139;SDS011;52945;51.908;8.364;2023-07-08T08:59:42;5.30;;;2.22;;
66139;SDS011;52945;51.908;8.364;2023-07-08T09:03:00;4.63;;;2.70;;
66139;SDS011;52945;51.908;8.364;2023-07-08T09:06:11;5.13;;;2.42;;
66139;SDS011;52945;51.908;8.364;2023-07-08T09:09:26;3.10;;;2.08;;
66139;SDS011;52945;51.908;8.364;2023-07-08T09:12:35;4.53;;;2.20;;
66139;SDS011;52945;51.908;8.364;2023-07-08T09:15:36;5.65;;;2.10;;
66139;SDS011;52945;51.908;8.364;2023-07-08T09:18:39;5.47;;;2.35;;
66139;SDS011;52945;51.908;8.364;2023-07-08T09:27:56;4.72;;;2.60;;
66139;SDS011;52945;51.908;8.364;2023-07-08T09:30:57;3.97;;;2.42;;
66139;SDS011;52945;51.908;8.364;2023-07-08T09:34:08;4.18;;;2.30;;
66139;SDS011;52945;51.908;8.364;2023-07-08T09:37:25;6.75;;;2.40;;
66139;SDS011;52945;51.908;8.364;2023-07-08T09:40:29;4.20;;;2.67;;
66139;SDS011;52945;51.908;8.364;2023-07-08T09:43:35;5.05;;;2.20;;
66139;SDS011;52945;51.908;8.364;2023-07-08T09:46:38;4.15;;;2.30;;
66139;SDS011;52945;51.908;8.364;2023-07-08T09:49:38;4.78;;;2.45;;
66139;SDS011;52945;51.908;8.364;2023-07-08T09:52:39;5.75;;;2.42;;
66139;SDS011;52945;51.908;8.364;2023-07-08T09:55:41;5.10;;;2.45;;
66139;SDS011;52945;51.908;8.364;2023-07-08T09:58:42;3.90;;;2.20;;
66139;SDS011;52945;51.908;8.364;2023-07-08T10:01:47;3.67;;;2.58;;
66139;SDS011;52945;51.908;8.364;2023-07-08T10:04:51;3.40;;;2.30;;
66139;SDS011;52945;51.908;8.364;2023-07-08T10:07:54;4.65;;;2.97;;
66139;SDS011;52945;51.908;8.364;2023-07-08T10:11:04;5.20;;;2.83;;
66139;SDS011;52945;51.908;8.364;2023-07-08T10:14:24;4.97;;;2.20;;
66139;SDS011;52945;51.908;8.364;2023-07-08T10:17:38;4.85;;;2.47;;
66139;SDS011;52945;51.908;8.364;2023-07-08T10:20:59;4.22;;;2.53;;
66139;SDS011;52945;51.908;8.364;2023-07-08T10:30:42;4.53;;;2.30;;
66139;SDS011;52945;51.908;8.364;2023-07-08T10:47:56;4.72;;;2.63;;
66139;SDS011;52945;51.908;8.364;2023-07-08T10:57:43;3.75;;;2.63;;
66139;SDS011;52945;51.908;8.364;2023-07-08T11:01:07;5.90;;;3.00;;
66139;SDS011;52945;51.908;8.364;2023-07-08T11:04:28;4.43;;;2.30;;
66139;SDS011;52945;51.908;8.364;2023-07-08T11:11:01;5.10;;;2.28;;
66139;SDS011;52945;51.908;8.364;2023-07-08T11:14:17;3.85;;;2.38;;
66139;SDS011;52945;51.908;8.364;2023-07-08T11:21:09;4.38;;;2.38;;
66139;SDS011;52945;51.908;8.364;2023-07-08T11:27:21;7.45;;;2.90;;
66139;SDS011;52945;51.908;8.364;2023-07-08T11:30:28;4.80;;;2.58;;
66139;SDS011;52945;51.908;8.364;2023-07-08T11:33:30;6.57;;;2.72;;
66139;SDS011;52945;51.908;8.364;2023-07-08T11:36:33;6.72;;;2.50;;
66139;SDS011;52945;51.908;8.364;2023-07-08T11:39:41;3.75;;;2.42;;
66139;SDS011;52945;51.908;8.364;2023-07-08T11:42:44;4.43;;;2.78;;
66139;SDS011;52945;51.908;8.364;2023-07-08T11:45:49;4.75;;;2.80;;
66139;SDS011;52945;51.908;8.364;2023-07-08T11:48:51;4.07;;;2.60;;
66139;SDS011;52945;51.908;8.364;2023-07-08T11:51:53;4.60;;;2.47;;
66139;SDS011;52945;51.908;8.364;2023-07-08T11:54:59;4.70;;;2.42;;
66139;SDS011;52945;51.908;8.364;2023-07-08T11:58:22;4.65;;;2.50;;
66139;SDS011;52945;51.908;8.364;2023-07-08T12:04:33;4.25;;;2.58;;
66139;SDS011;52945;51.908;8.364;2023-07-08T12:07:42;5.13;;;2.58;;
66139;SDS011;52945;51.908;8.364;2023-07-08T12:10:50;4.63;;;2.50;;
66139;SDS011;52945;51.908;8.364;2023-07-08T12:13:51;4.22;;;2.40;;
66139;SDS011;52945;51.908;8.364;2023-07-08T12:16:55;4.13;;;2.75;;
66139;SDS011;52945;51.908;8.364;2023-07-08T12:19:55;4.30;;;2.55;;
66139;SDS011;52945;51.908;8.364;2023-07-08T12:23:01;5.00;;;2.70;;
66139;SDS011;52945;51.908;8.364;2023-07-08T12:26:11;5.38;;;2.42;;
66139;SDS011;52945;51.908;8.364;2023-07-08T12:29:12;4.72;;;2.88;;
66139;SDS011;52945;51.908;8.364;2023-07-08T12:32:13;4.28;;;2.58;;
66139;SDS011;52945;51.908;8.364;2023-07-08T12:35:24;4.47;;;2.47;;
66139;SDS011;52945;51.908;8.364;2023-07-08T12:38:28;5.60;;;2.50;;
66139;SDS011;52945;51.908;8.364;2023-07-08T12:41:43;6.13;;;2.65;;
66139;SDS011;52945;51.908;8.364;2023-07-08T12:44:45;4.15;;;2.70;;
66139;SDS011;52945;51.908;8.364;2023-07-08T12:47:45;6.45;;;2.90;;
66139;SDS011;52945;51.908;8.364;2023-07-08T12:50:46;4.63;;;2.67;;
66139;SDS011;52945;51.908;8.364;2023-07-08T12:53:50;5.18;;;2.85;;
66139;SDS011;52945;51.908;8.364;2023-07-08T12:56:52;5.82;;;2.75;;
66139;SDS011;52945;51.908;8.364;2023-07-08T12:59:54;5.97;;;3.03;;
66139;SDS011;52945;51.908;8.364;2023-07-08T13:02:56;5.90;;;3.05;;
66139;SDS011;52945;51.908;8.364;2023-07-08T13:06:12;4.43;;;2.42;;
66139;SDS011;52945;51.908;8.364;2023-07-08T13:12:42;6.03;;;2.97;;
66139;SDS011;52945;51.908;8.364;2023-07-08T13:15:43;4.95;;;2.72;;
66139;SDS011;52945;51.908;8.364;2023-07-08T13:18:44;5.40;;;2.53;;
66139;SDS011;52945;51.908;8.364;2023-07-08T13:21:45;4.70;;;2.72;;
66139;SDS011;52945;51.908;8.364;2023-07-08T13:24:47;5.60;;;3.10;;
66139;SDS011;52945;51.908;8.364;2023-07-08T13:28:01;5.05;;;2.72;;
66139;SDS011;52945;51.908;8.364;2023-07-08T13:31:18;8.32;;;2.90;;
66139;SDS011;52945;51.908;8.364;2023-07-08T13:34:22;5.20;;;2.83;;
66139;SDS011;52945;51.908;8.364;2023-07-08T13:37:24;5.15;;;3.10;;
66139;SDS011;52945;51.908;8.364;2023-07-08T13:40:29;5.72;;;2.63;;
66139;SDS011;52945;51.908;8.364;2023-07-08T13:43:32;6.00;;;3.05;;
66139;SDS011;52945;51.908;8.364;2023-07-08T13:46:38;5.22;;;2.75;;
66139;SDS011;52945;51.908;8.364;2023-07-08T13:49:45;4.63;;;2.63;;
66139;SDS011;52945;51.908;8.364;2023-07-08T13:52:45;6.78;;;3.05;;
66139;SDS011;52945;51.908;8.364;2023-07-08T13:55:46;6.78;;;2.70;;
66139;SDS011;52945;51.908;8.364;2023-07-08T13:58:48;5.80;;;3.05;;
66139;SDS011;52945;51.908;8.364;2023-07-08T14:01:52;5.88;;;2.92;;
66139;SDS011;52945;51.908;8.364;2023-07-08T14:04:54;7.20;;;2.90;;
66139;SDS011;52945;51.908;8.364;2023-07-08T14:07:57;4.28;;;2.63;;
66139;SDS011;52945;51.908;8.364;2023-07-08T14:10:57;10.73;;;3.47;;
66139;SDS011;52945;51.908;8.364;2023-07-08T14:13:58;7.15;;;3.15;;
66139;SDS011;52945;51.908;8.364;2023-07-08T14:16:58;5.32;;;2.95;;
66139;SDS011;52945;51.908;8.364;2023-07-08T14:19:59;4.95;;;2.83;;
66139;SDS011;52945;51.908;8.364;2023-07-08T14:23:00;6.78;;;3.05;;
66139;SDS011;52945;51.908;8.364;2023-07-08T14:26:00;5.45;;;2.95;;
66139;SDS011;52945;51.908;8.364;2023-07-08T14:29:01;4.70;;;2.67;;
66139;SDS011;52945;51.908;8.364;2023-07-08T14:32:01;5.95;;;3.42;;
66139;SDS011;52945;51.908;8.364;2023-07-08T14:38:14;5.82;;;3.05;;
66139;SDS011;52945;51.908;8.364;2023-07-08T14:41:15;6.07;;;2.97;;
66139;SDS011;52945;51.908;8.364;2023-07-08T14:44:23;5.25;;;3.05;;
66139;SDS011;52945;51.908;8.364;2023-07-08T14:47:24;5.45;;;3.15;;
66139;SDS011;52945;51.908;8.364;2023-07-08T14:50:25;5.32;;;2.92;;
66139;SDS011;52945;51.908;8.364;2023-07-08T14:53:29;6.65;;;2.90;;
66139;SDS011;52945;51.908;8.364;2023-07-08T14:56:29;6.25;;;3.20;;
66139;SDS011;52945;51.908;8.364;2023-07-08T14:59:31;7.65;;;3.05;;
66139;SDS011;52945;51.908;8.364;2023-07-08T15:02:33;4.45;;;2.65;;
66139;SDS011;52945;51.908;8.364;2023-07-08T15:05:36;5.93;;;3.13;;
66139;SDS011;52945;51.908;8.364;2023-07-08T15:08:37;5.22;;;2.80;;
66139;SDS011;52945;51.908;8.364;2023-07-08T15:11:38;6.53;;;3.40;;
66139;SDS011;52945;51.908;8.364;2023-07-08T15:14:40;4.28;;;3.03;;
66139;SDS011;52945;51.908;8.364;2023-07-08T15:17:41;5.97;;;2.90;;
66139;SDS011;52945;51.908;8.364;2023-07-08T15:20:43;6.78;;;3.03;;
66139;SDS011;52945;51.908;8.364;2023-07-08T15:23:43;5.07;;;2.92;;
66139;SDS011;52945;51.908;8.364;2023-07-08T15:26:45;4.95;;;2.55;;
66139;SDS011;52945;51.908;8.364;2023-07-08T15:29:48;5.55;;;2.80;;
66139;SDS011;52945;51.908;8.364;2023-07-08T15:32:49;6.03;;;3.03;;
66139;SDS011;52945;51.908;8.364;2023-07-08T15:35:51;6.22;;;2.90;;
66139;SDS011;52945;51.908;8.364;2023-07-08T15:38:53;5.32;;;2.90;;
66139;SDS011;52945;51.908;8.364;2023-07-08T15:41:53;6.80;;;3.03;;
66139;SDS011;52945;51.908;8.364;2023-07-08T15:44:54;4.78;;;2.72;;
66139;SDS011;52945;51.908;8.364;2023-07-08T15:47:54;5.32;;;3.10;;
66139;SDS011;52945;51.908;8.364;2023-07-08T15:50:55;11.32;;;3.17;;
66139;SDS011;52945;51.908;8.364;2023-07-08T15:53:56;6.20;;;2.90;;
66139;SDS011;52945;51.908;8.364;2023-07-08T15:56:56;5.70;;;3.15;;
66139;SDS011;52945;51.908;8.364;2023-07-08T15:59:57;5.03;;;2.72;;
66139;SDS011;52945;51.908;8.364;2023-07-08T16:02:59;4.30;;;2.67;;
66139;SDS011;52945;51.908;8.364;2023-07-08T16:06:02;5.80;;;3.10;;
66139;SDS011;52945;51.908;8.364;2023-07-08T16:09:03;5.60;;;2.63;;
66139;SDS011;52945;51.908;8.364;2023-07-08T16:12:03;4.38;;;2.70;;
66139;SDS011;52945;51.908;8.364;2023-07-08T16:15:05;5.82;;;2.90;;
66139;SDS011;52945;51.908;8.364;2023-07-08T16:18:09;6.28;;;3.17;;
66139;SDS011;52945;51.908;8.364;2023-07-08T16:21:12;5.75;;;3.00;;
66139;SDS011;52945;51.908;8.364;2023-07-08T16:24:12;5.00;;;2.70;;
66139;SDS011;52945;51.908;8.364;2023-07-08T16:27:13;5.43;;;2.88;;
66139;SDS011;52945;51.908;8.364;2023-07-08T16:30:14;5.13;;;3.13;;
66139;SDS011;52945;51.908;8.364;2023-07-08T16:33:17;6.00;;;3.03;;
66139;SDS011;52945;51.908;8.364;2023-07-08T16:36:19;5.55;;;2.70;;
66139;SDS011;52945;51.908;8.364;2023-07-08T16:39:22;5.68;;;3.20;;
66139;SDS011;52945;51.908;8.364;2023-07-08T16:42:22;5.68;;;3.30;;
66139;SDS011;52945;51.908;8.364;2023-07-08T16:45:24;6.03;;;3.20;;
66139;SDS011;52945;51.908;8.364;2023-07-08T16:48:25;6.53;;;3.15;;
66139;SDS011;52945;51.908;8.364;2023-07-08T16:51:27;4.97;;;3.38;;
66139;SDS011;52945;51.908;8.364;2023-07-08T16:54:28;7.45;;;3.30;;
66139;SDS011;52945;51.908;8.364;2023-07-08T16:57:29;4.82;;;2.92;;
66139;SDS011;52945;51.908;8.364;2023-07-08T17:00:29;5.93;;;2.88;;
66139;SDS011;52945;51.908;8.364;2023-07-08T17:03:30;5.25;;;2.95;;
66139;SDS011;52945;51.908;8.364;2023-07-08T17:06:32;5.32;;;3.00;;
66139;SDS011;52945;51.908;8.364;2023-07-08T17:09:33;5.85;;;3.42;;
66139;SDS011;52945;51.908;8.364;2023-07-08T17:12:33;5.90;;;3.05;;
66139;SDS011;52945;51.908;8.364;2023-07-08T17:15:34;5.60;;;3.38;;
66139;SDS011;52945;51.908;8.364;2023-07-08T17:18:35;4.95;;;2.97;;
66139;SDS011;52945;51.908;8.364;2023-07-08T17:21:36;5.18;;;3.10;;
66139;SDS011;52945;51.908;8.364;2023-07-08T17:24:36;6.93;;;3.88;;
66139;SDS011;52945;51.908;8.364;2023-07-08T17:27:37;6.57;;;3.38;;
66139;SDS011;52945;51.908;8.364;2023-07-08T17:30:38;6.03;;;3.75;;
66139;SDS011;52945;51.908;8.364;2023-07-08T17:33:41;8.27;;;3.65;;
66139;SDS011;52945;51.908;8.364;2023-07-08T17:36:42;5.75;;;3.38;;
66139;SDS011;52945;51.908;8.364;2023-07-08T17:39:42;12.10;;;7.28;;
66139;SDS011;52945;51.908;8.364;2023-07-08T17:42:43;22.48;;;15.15;;
66139;SDS011;52945;51.908;8.364;2023-07-08T17:45:44;18.35;;;14.38;;
66139;SDS011;52945;51.908;8.364;2023-07-08T17:48:45;27.70;;;16.65;;
66139;SDS011;52945;51.908;8.364;2023-07-08T17:51:47;21.17;;;11.77;;
66139;SDS011;52945;51.908;8.364;2023-07-08T17:54:47;55.92;;;31.05;;
66139;SDS011;52945;51.908;8.364;2023-07-08T17:57:48;63.25;;;35.90;;
66139;SDS011;52945;51.908;8.364;2023-07-08T18:00:50;44.47;;;26.73;;
66139;SDS011;52945;51.908;8.364;2023-07-08T18:03:50;16.13;;;10.43;;
66139;SDS011;52945;51.908;8.364;2023-07-08T18:06:51;9.88;;;5.50;;
66139;SDS011;52945;51.908;8.364;2023-07-08T18:09:53;5.82;;;3.70;;
66139;SDS011;52945;51.908;8.364;2023-07-08T18:12:53;5.78;;;3.25;;
66139;SDS011;52945;51.908;8.364;2023-07-08T18:15:55;6.90;;;3.80;;
66139;SDS011;52945;51.908;8.364;2023-07-08T18:18:55;8.90;;;4.32;;
66139;SDS011;52945;51.908;8.364;2023-07-08T18:21:56;8.60;;;4.43;;
66139;SDS011;52945;51.908;8.364;2023-07-08T18:24:56;12.27;;;6.45;;
66139;SDS011;52945;51.908;8.364;2023-07-08T18:27:57;6.00;;;3.80;;
66139;SDS011;52945;51.908;8.364;2023-07-08T18:30:58;13.10;;;6.97;;
66139;SDS011;52945;51.908;8.364;2023-07-08T18:34:00;9.85;;;5.20;;
66139;SDS011;52945;51.908;8.364;2023-07-08T18:37:02;8.60;;;3.83;;
66139;SDS011;52945;51.908;8.364;2023-07-08T18:40:03;6.40;;;3.25;;
66139;SDS011;52945;51.908;8.364;2023-07-08T18:43:23;6.93;;;3.65;;
66139;SDS011;52945;51.908;8.364;2023-07-08T18:46:25;7.13;;;3.90;;
66139;SDS011;52945;51.908;8.364;2023-07-08T18:49:25;6.30;;;3.88;;
66139;SDS011;52945;51.908;8.364;2023-07-08T18:52:26;8.02;;;4.03;;
66139;SDS011;52945;51.908;8.364;2023-07-08T18:55:26;6.68;;;3.78;;
66139;SDS011;52945;51.908;8.364;2023-07-08T18:58:27;8.05;;;4.03;;
66139;SDS011;52945;51.908;8.364;2023-07-08T19:01:28;5.10;;;3.15;;
66139;SDS011;52945;51.908;8.364;2023-07-08T19:04:28;5.57;;;3.53;;
66139;SDS011;52945;51.908;8.364;2023-07-08T19:07:29;7.60;;;3.47;;
66139;SDS011;52945;51.908;8.364;2023-07-08T19:10:30;7.18;;;3.63;;
66139;SDS011;52945;51.908;8.364;2023-07-08T19:13:32;7.30;;;3.97;;
66139;SDS011;52945;51.908;8.364;2023-07-08T19:16:32;7.90;;;4.18;;
66139;SDS011;52945;51.908;8.364;2023-07-08T19:19:33;8.88;;;4.40;;
66139;SDS011;52945;51.908;8.364;2023-07-08T19:22:33;6.00;;;4.13;;
66139;SDS011;52945;51.908;8.364;2023-07-08T19:25:34;6.72;;;3.97;;
66139;SDS011;52945;51.908;8.364;2023-07-08T19:28:35;5.47;;;3.45;;
66139;SDS011;52945;51.908;8.364;2023-07-08T19:31:35;6.35;;;4.00;;